sensor_id;sensor_type;location;lat;lon;timestamp;temperature;humidity
30288;DHT22;17103;48.316;11.558;2023-12-20T00:01:08;10.30;33.70
30288;DHT22;17103;48.316;11.558;2023-12-20T00:03:34;10.30;33.70
30288;DHT22;17103;48.316;11.558;2023-12-20T00:05:59;10.30;33.70
30288;DHT22;17103;48.316;11.558;2023-12-20T00:08:25;10.30;33.80
30288;DHT22;17103;48.316;11.558;2023-12-20T00:10:50;10.30;33.80
30288;DHT22;17103;48.316;11.558;2023-12-20T00:13:16;10.30;33.90
30288;DHT22;17103;48.316;11.558;2023-12-20T00:15:41;10.30;34.00
30288;DHT22;17103;48.316;11.558;2023-12-20T00:18:07;10.30;34.10
30288;DHT22;17103;48.316;11.558;2023-12-20T00:20:32;10.30;34.10
30288;DHT22;17103;48.316;11.558;2023-12-20T00:22:58;10.20;34.20
30288;DHT22;17103;48.316;11.558;2023-12-20T00:25:24;10.20;34.40
30288;DHT22;17103;48.316;11.558;2023-12-20T00:27:50;10.20;34.40
30288;DHT22;17103;48.316;11.558;2023-12-20T00:30:15;10.20;34.50
30288;DHT22;17103;48.316;11.558;2023-12-20T00:32:41;10.20;34.60
30288;DHT22;17103;48.316;11.558;2023-12-20T00:35:12;10.20;34.60
30288;DHT22;17103;48.316;11.558;2023-12-20T00:37:37;10.30;34.70
30288;DHT22;17103;48.316;11.558;2023-12-20T00:40:03;10.30;34.70
30288;DHT22;17103;48.316;11.558;2023-12-20T00:42:29;10.30;34.70
30288;DHT22;17103;48.316;11.558;2023-12-20T00:44:54;10.40;34.90
30288;DHT22;17103;48.316;11.558;2023-12-20T00:47:20;10.40;35.00
30288;DHT22;17103;48.316;11.558;2023-12-20T00:49:45;10.40;35.00
30288;DHT22;17103;48.316;11.558;2023-12-20T00:52:11;10.40;35.00
30288;DHT22;17103;48.316;11.558;2023-12-20T00:54:36;10.40;35.20
30288;DHT22;17103;48.316;11.558;2023-12-20T00:57:02;10.40;35.30
30288;DHT22;17103;48.316;11.558;2023-12-20T00:59:28;10.40;35.30
30288;DHT22;17103;48.316;11.558;2023-12-20T01:01:53;10.40;35.20
30288;DHT22;17103;48.316;11.558;2023-12-20T01:04:19;10.40;35.20
30288;DHT22;17103;48.316;11.558;2023-12-20T01:06:44;10.50;35.40
30288;DHT22;17103;48.316;11.558;2023-12-20T01:09:10;10.40;35.40
30288;DHT22;17103;48.316;11.558;2023-12-20T01:11:35;10.40;35.40
30288;DHT22;17103;48.316;11.558;2023-12-20T01:14:01;10.50;35.50
30288;DHT22;17103;48.316;11.558;2023-12-20T01:16:26;10.40;35.50
30288;DHT22;17103;48.316;11.558;2023-12-20T01:18:52;10.50;35.50
30288;DHT22;17103;48.316;11.558;2023-12-20T01:21:18;10.40;35.60
30288;DHT22;17103;48.316;11.558;2023-12-20T01:23:43;10.40;35.50
30288;DHT22;17103;48.316;11.558;2023-12-20T01:26:09;10.40;35.50
30288;DHT22;17103;48.316;11.558;2023-12-20T01:28:34;10.40;35.80
30288;DHT22;17103;48.316;11.558;2023-12-20T01:31:00;10.40;35.50
30288;DHT22;17103;48.316;11.558;2023-12-20T01:33:25;10.40;35.90
30288;DHT22;17103;48.316;11.558;2023-12-20T01:35:51;10.40;35.40
30288;DHT22;17103;48.316;11.558;2023-12-20T01:38:16;10.40;35.50
30288;DHT22;17103;48.316;11.558;2023-12-20T01:40:44;10.40;35.60
30288;DHT22;17103;48.316;11.558;2023-12-20T01:43:09;10.40;35.70
30288;DHT22;17103;48.316;11.558;2023-12-20T01:45:37;10.40;35.80
30288;DHT22;17103;48.316;11.558;2023-12-20T01:48:02;10.40;36.00
30288;DHT22;17103;48.316;11.558;2023-12-20T01:50:29;10.40;36.10
30288;DHT22;17103;48.316;11.558;2023-12-20T01:52:56;10.40;36.30
30288;DHT22;17103;48.316;11.558;2023-12-20T01:55:23;10.40;36.30
30288;DHT22;17103;48.316;11.558;2023-12-20T01:57:49;10.40;36.50
30288;DHT22;17103;48.316;11.558;2023-12-20T02:00:15;10.40;36.30
30288;DHT22;17103;48.316;11.558;2023-12-20T02:02:41;10.40;36.40
30288;DHT22;17103;48.316;11.558;2023-12-20T02:05:08;10.40;36.50
30288;DHT22;17103;48.316;11.558;2023-12-20T02:07:34;10.50;36.50
30288;DHT22;17103;48.316;11.558;2023-12-20T02:10:00;10.50;36.30
30288;DHT22;17103;48.316;11.558;2023-12-20T02:12:26;10.50;36.20
30288;DHT22;17103;48.316;11.558;2023-12-20T02:14:52;10.50;36.80
30288;DHT22;17103;48.316;11.558;2023-12-20T02:17:19;10.50;36.20
30288;DHT22;17103;48.316;11.558;2023-12-20T02:19:45;10.50;36.20
30288;DHT22;17103;48.316;11.558;2023-12-20T02:22:11;10.60;36.50
30288;DHT22;17103;48.316;11.558;2023-12-20T02:24:37;10.50;36.30
30288;DHT22;17103;48.316;11.558;2023-12-20T02:27:02;10.50;36.30
30288;DHT22;17103;48.316;11.558;2023-12-20T02:29:28;10.50;36.30
30288;DHT22;17103;48.316;11.558;2023-12-20T02:31:54;10.50;36.30
30288;DHT22;17103;48.316;11.558;2023-12-20T02:34:19;10.60;36.50
30288;DHT22;17103;48.316;11.558;2023-12-20T02:36:45;10.50;36.40
30288;DHT22;17103;48.316;11.558;2023-12-20T02:39:10;10.50;36.30
30288;DHT22;17103;48.316;11.558;2023-12-20T02:41:36;10.50;36.40
30288;DHT22;17103;48.316;11.558;2023-12-20T02:44:01;10.50;36.60
30288;DHT22;17103;48.316;11.558;2023-12-20T02:46:27;10.50;36.70
30288;DHT22;17103;48.316;11.558;2023-12-20T02:48:52;10.40;36.70
30288;DHT22;17103;48.316;11.558;2023-12-20T02:51:18;10.40;36.80
30288;DHT22;17103;48.316;11.558;2023-12-20T02:53:44;10.40;36.90
30288;DHT22;17103;48.316;11.558;2023-12-20T02:56:09;10.40;37.20
30288;DHT22;17103;48.316;11.558;2023-12-20T02:58:35;10.40;37.20
30288;DHT22;17103;48.316;11.558;2023-12-20T03:01:00;10.40;37.00
30288;DHT22;17103;48.316;11.558;2023-12-20T03:03:26;10.40;37.30
30288;DHT22;17103;48.316;11.558;2023-12-20T03:05:51;10.40;37.30
30288;DHT22;17103;48.316;11.558;2023-12-20T03:08:17;10.40;37.60
30288;DHT22;17103;48.316;11.558;2023-12-20T03:10:42;10.40;37.50
30288;DHT22;17103;48.316;11.558;2023-12-20T03:13:08;10.40;37.80
30288;DHT22;17103;48.316;11.558;2023-12-20T03:15:33;10.40;37.70
30288;DHT22;17103;48.316;11.558;2023-12-20T03:17:59;10.40;37.90
30288;DHT22;17103;48.316;11.558;2023-12-20T03:20:25;10.30;38.00
30288;DHT22;17103;48.316;11.558;2023-12-20T03:22:54;10.30;38.30
30288;DHT22;17103;48.316;11.558;2023-12-20T03:25:19;10.20;38.50
30288;DHT22;17103;48.316;11.558;2023-12-20T03:27:47;10.10;39.00
30288;DHT22;17103;48.316;11.558;2023-12-20T03:30:13;10.00;39.30
30288;DHT22;17103;48.316;11.558;2023-12-20T03:32:39;10.00;39.40
30288;DHT22;17103;48.316;11.558;2023-12-20T03:35:06;10.70;40.40
30288;DHT22;17103;48.316;11.558;2023-12-20T03:37:32;9.80;41.10
30288;DHT22;17103;48.316;11.558;2023-12-20T03:40:00;9.80;41.30
30288;DHT22;17103;48.316;11.558;2023-12-20T03:42:33;9.80;41.40
30288;DHT22;17103;48.316;11.558;2023-12-20T03:44:59;9.70;42.60
30288;DHT22;17103;48.316;11.558;2023-12-20T03:47:38;9.80;42.80
30288;DHT22;17103;48.316;11.558;2023-12-20T03:50:05;9.60;43.10
30288;DHT22;17103;48.316;11.558;2023-12-20T03:52:32;9.60;43.50
30288;DHT22;17103;48.316;11.558;2023-12-20T03:54:57;9.50;43.80
30288;DHT22;17103;48.316;11.558;2023-12-20T03:57:24;9.50;44.70
30288;DHT22;17103;48.316;11.558;2023-12-20T03:59:52;9.40;44.80
30288;DHT22;17103;48.316;11.558;2023-12-20T04:02:18;9.30;45.30
30288;DHT22;17103;48.316;11.558;2023-12-20T04:04:47;9.40;45.00
30288;DHT22;17103;48.316;11.558;2023-12-20T04:07:13;9.30;46.30
30288;DHT22;17103;48.316;11.558;2023-12-20T04:09:40;9.30;47.00
30288;DHT22;17103;48.316;11.558;2023-12-20T04:12:06;9.30;47.40
30288;DHT22;17103;48.316;11.558;2023-12-20T04:14:32;9.30;47.70
30288;DHT22;17103;48.316;11.558;2023-12-20T04:16:58;9.20;48.80
30288;DHT22;17103;48.316;11.558;2023-12-20T04:19:25;9.20;49.00
30288;DHT22;17103;48.316;11.558;2023-12-20T04:21:51;9.10;49.40
30288;DHT22;17103;48.316;11.558;2023-12-20T04:24:18;9.00;48.20
30288;DHT22;17103;48.316;11.558;2023-12-20T04:26:44;8.00;47.90
30288;DHT22;17103;48.316;11.558;2023-12-20T04:29:11;9.00;49.60
30288;DHT22;17103;48.316;11.558;2023-12-20T04:31:37;9.00;49.00
30288;DHT22;17103;48.316;11.558;2023-12-20T04:34:06;9.00;50.40
30288;DHT22;17103;48.316;11.558;2023-12-20T04:36:32;8.60;49.50
30288;DHT22;17103;48.316;11.558;2023-12-20T04:39:00;8.80;50.40
30288;DHT22;17103;48.316;11.558;2023-12-20T04:41:26;8.90;50.60
30288;DHT22;17103;48.316;11.558;2023-12-20T04:43:53;8.80;51.10
30288;DHT22;17103;48.316;11.558;2023-12-20T04:46:20;8.80;50.60
30288;DHT22;17103;48.316;11.558;2023-12-20T04:48:46;8.70;51.00
30288;DHT22;17103;48.316;11.558;2023-12-20T04:51:12;8.60;51.30
30288;DHT22;17103;48.316;11.558;2023-12-20T04:53:38;8.70;51.20
30288;DHT22;17103;48.316;11.558;2023-12-20T04:56:04;8.70;52.10
30288;DHT22;17103;48.316;11.558;2023-12-20T04:58:30;8.60;52.00
30288;DHT22;17103;48.316;11.558;2023-12-20T05:00:56;8.80;51.80
30288;DHT22;17103;48.316;11.558;2023-12-20T05:03:22;8.60;52.90
30288;DHT22;17103;48.316;11.558;2023-12-20T05:05:47;8.60;52.50
30288;DHT22;17103;48.316;11.558;2023-12-20T05:08:13;8.60;52.40
30288;DHT22;17103;48.316;11.558;2023-12-20T05:10:41;8.60;52.70
30288;DHT22;17103;48.316;11.558;2023-12-20T05:13:08;8.60;52.80
30288;DHT22;17103;48.316;11.558;2023-12-20T05:15:40;8.60;53.00
30288;DHT22;17103;48.316;11.558;2023-12-20T05:18:08;8.60;53.10
30288;DHT22;17103;48.316;11.558;2023-12-20T05:23:11;8.40;54.10
30288;DHT22;17103;48.316;11.558;2023-12-20T05:25:44;7.90;53.90
30288;DHT22;17103;48.316;11.558;2023-12-20T05:28:13;8.30;53.90
30288;DHT22;17103;48.316;11.558;2023-12-20T05:30:41;8.40;54.50
30288;DHT22;17103;48.316;11.558;2023-12-20T05:33:09;8.30;54.40
30288;DHT22;17103;48.316;11.558;2023-12-20T05:38:19;8.40;55.00
30288;DHT22;17103;48.316;11.558;2023-12-20T05:40:47;8.40;55.30
30288;DHT22;17103;48.316;11.558;2023-12-20T05:43:18;8.40;55.50
30288;DHT22;17103;48.316;11.558;2023-12-20T05:45:44;8.40;56.00
30288;DHT22;17103;48.316;11.558;2023-12-20T05:48:13;8.40;55.80
30288;DHT22;17103;48.316;11.558;2023-12-20T05:53:21;8.40;55.80
30288;DHT22;17103;48.316;11.558;2023-12-20T05:55:50;8.40;56.40
30288;DHT22;17103;48.316;11.558;2023-12-20T05:58:25;8.40;56.80
30288;DHT22;17103;48.316;11.558;2023-12-20T06:01:06;8.40;56.90
30288;DHT22;17103;48.316;11.558;2023-12-20T06:03:35;8.30;56.90
30288;DHT22;17103;48.316;11.558;2023-12-20T06:06:07;8.30;57.30
30288;DHT22;17103;48.316;11.558;2023-12-20T06:08:33;8.30;56.80
30288;DHT22;17103;48.316;11.558;2023-12-20T06:10:59;8.30;57.30
30288;DHT22;17103;48.316;11.558;2023-12-20T06:13:25;8.30;57.30
30288;DHT22;17103;48.316;11.558;2023-12-20T06:16:05;8.30;57.50
30288;DHT22;17103;48.316;11.558;2023-12-20T06:18:31;8.30;57.50
30288;DHT22;17103;48.316;11.558;2023-12-20T06:21:02;8.30;57.90
30288;DHT22;17103;48.316;11.558;2023-12-20T06:23:38;8.20;57.30
30288;DHT22;17103;48.316;11.558;2023-12-20T06:26:05;8.20;57.50
30288;DHT22;17103;48.316;11.558;2023-12-20T06:28:46;8.30;56.70
30288;DHT22;17103;48.316;11.558;2023-12-20T06:31:24;7.90;56.50
30288;DHT22;17103;48.316;11.558;2023-12-20T06:33:49;8.20;56.80
30288;DHT22;17103;48.316;11.558;2023-12-20T06:36:23;7.10;56.50
30288;DHT22;17103;48.316;11.558;2023-12-20T06:38:52;8.20;57.10
30288;DHT22;17103;48.316;11.558;2023-12-20T06:41:18;8.10;56.90
30288;DHT22;17103;48.316;11.558;2023-12-20T06:43:44;8.10;57.10
30288;DHT22;17103;48.316;11.558;2023-12-20T06:46:10;8.10;57.30
30288;DHT22;17103;48.316;11.558;2023-12-20T06:48:35;8.00;57.10
30288;DHT22;17103;48.316;11.558;2023-12-20T06:51:01;8.00;56.70
30288;DHT22;17103;48.316;11.558;2023-12-20T06:53:30;8.00;56.90
30288;DHT22;17103;48.316;11.558;2023-12-20T06:55:55;8.00;56.90
30288;DHT22;17103;48.316;11.558;2023-12-20T06:58:24;7.90;56.60
30288;DHT22;17103;48.316;11.558;2023-12-20T07:00:50;7.90;57.00
30288;DHT22;17103;48.316;11.558;2023-12-20T07:03:15;7.80;57.00
30288;DHT22;17103;48.316;11.558;2023-12-20T07:05:41;7.80;57.30
30288;DHT22;17103;48.316;11.558;2023-12-20T07:08:07;7.80;57.30
30288;DHT22;17103;48.316;11.558;2023-12-20T07:10:32;7.80;57.40
30288;DHT22;17103;48.316;11.558;2023-12-20T07:12:58;7.80;57.30
30288;DHT22;17103;48.316;11.558;2023-12-20T07:15:24;7.80;56.90
30288;DHT22;17103;48.316;11.558;2023-12-20T07:17:49;7.80;57.60
30288;DHT22;17103;48.316;11.558;2023-12-20T07:20:15;7.80;57.50
30288;DHT22;17103;48.316;11.558;2023-12-20T07:22:40;7.80;57.10
30288;DHT22;17103;48.316;11.558;2023-12-20T07:25:06;7.80;57.10
30288;DHT22;17103;48.316;11.558;2023-12-20T07:27:32;7.80;57.00
30288;DHT22;17103;48.316;11.558;2023-12-20T07:29:57;7.80;57.60
30288;DHT22;17103;48.316;11.558;2023-12-20T07:32:23;7.80;57.60
30288;DHT22;17103;48.316;11.558;2023-12-20T07:34:49;7.70;57.90
30288;DHT22;17103;48.316;11.558;2023-12-20T07:37:14;7.70;57.30
30288;DHT22;17103;48.316;11.558;2023-12-20T07:39:40;7.80;57.60
30288;DHT22;17103;48.316;11.558;2023-12-20T07:42:07;7.80;57.20
30288;DHT22;17103;48.316;11.558;2023-12-20T07:44:33;7.80;57.60
30288;DHT22;17103;48.316;11.558;2023-12-20T07:46:59;7.80;57.70
30288;DHT22;17103;48.316;11.558;2023-12-20T07:49:26;7.80;57.50
30288;DHT22;17103;48.316;11.558;2023-12-20T07:51:52;7.90;56.90
30288;DHT22;17103;48.316;11.558;2023-12-20T07:54:17;7.90;57.50
30288;DHT22;17103;48.316;11.558;2023-12-20T07:56:43;7.80;58.00
30288;DHT22;17103;48.316;11.558;2023-12-20T07:59:09;7.80;58.20
30288;DHT22;17103;48.316;11.558;2023-12-20T08:01:34;7.80;57.40
30288;DHT22;17103;48.316;11.558;2023-12-20T08:04:00;7.40;57.90
30288;DHT22;17103;48.316;11.558;2023-12-20T08:06:27;7.80;58.20
30288;DHT22;17103;48.316;11.558;2023-12-20T08:08:53;7.80;58.60
30288;DHT22;17103;48.316;11.558;2023-12-20T08:11:19;7.80;58.30
30288;DHT22;17103;48.316;11.558;2023-12-20T08:13:44;7.80;58.20
30288;DHT22;17103;48.316;11.558;2023-12-20T08:16:10;7.90;58.10
30288;DHT22;17103;48.316;11.558;2023-12-20T08:18:39;7.20;58.30
30288;DHT22;17103;48.316;11.558;2023-12-20T08:21:04;7.90;58.10
30288;DHT22;17103;48.316;11.558;2023-12-20T08:23:33;7.90;57.90
30288;DHT22;17103;48.316;11.558;2023-12-20T08:26:03;7.90;58.00
30288;DHT22;17103;48.316;11.558;2023-12-20T08:28:29;7.90;58.10
30288;DHT22;17103;48.316;11.558;2023-12-20T08:30:54;7.90;58.60
30288;DHT22;17103;48.316;11.558;2023-12-20T08:33:20;7.90;58.40
30288;DHT22;17103;48.316;11.558;2023-12-20T08:35:46;7.90;58.60
30288;DHT22;17103;48.316;11.558;2023-12-20T08:38:12;7.90;58.80
30288;DHT22;17103;48.316;11.558;2023-12-20T08:40:37;8.00;58.40
30288;DHT22;17103;48.316;11.558;2023-12-20T08:43:03;8.00;57.50
30288;DHT22;17103;48.316;11.558;2023-12-20T08:45:29;8.00;58.70
30288;DHT22;17103;48.316;11.558;2023-12-20T08:47:56;8.00;58.10
30288;DHT22;17103;48.316;11.558;2023-12-20T08:50:23;8.10;57.80
30288;DHT22;17103;48.316;11.558;2023-12-20T08:52:50;8.00;58.50
30288;DHT22;17103;48.316;11.558;2023-12-20T08:55:16;8.10;58.40
30288;DHT22;17103;48.316;11.558;2023-12-20T08:57:43;8.00;58.70
30288;DHT22;17103;48.316;11.558;2023-12-20T09:00:09;8.10;58.20
30288;DHT22;17103;48.316;11.558;2023-12-20T09:02:35;8.10;58.10
30288;DHT22;17103;48.316;11.558;2023-12-20T09:05:02;8.10;58.40
30288;DHT22;17103;48.316;11.558;2023-12-20T09:07:27;8.10;58.50
30288;DHT22;17103;48.316;11.558;2023-12-20T09:09:56;8.10;59.10
30288;DHT22;17103;48.316;11.558;2023-12-20T09:12:22;8.10;58.80
30288;DHT22;17103;48.316;11.558;2023-12-20T09:14:48;8.10;58.70
30288;DHT22;17103;48.316;11.558;2023-12-20T09:17:14;8.10;59.20
30288;DHT22;17103;48.316;11.558;2023-12-20T09:19:41;8.10;58.30
30288;DHT22;17103;48.316;11.558;2023-12-20T09:22:07;8.10;58.80
30288;DHT22;17103;48.316;11.558;2023-12-20T09:24:32;8.00;58.90
30288;DHT22;17103;48.316;11.558;2023-12-20T09:26:58;8.10;59.30
30288;DHT22;17103;48.316;11.558;2023-12-20T09:29:23;8.10;58.70
30288;DHT22;17103;48.316;11.558;2023-12-20T09:31:50;8.10;58.60
30288;DHT22;17103;48.316;11.558;2023-12-20T09:34:15;8.10;58.90
30288;DHT22;17103;48.316;11.558;2023-12-20T09:36:41;8.10;59.10
30288;DHT22;17103;48.316;11.558;2023-12-20T09:39:12;8.20;57.80
30288;DHT22;17103;48.316;11.558;2023-12-20T09:41:38;8.20;58.60
30288;DHT22;17103;48.316;11.558;2023-12-20T09:44:08;8.20;58.90
30288;DHT22;17103;48.316;11.558;2023-12-20T09:46:35;8.20;58.80
30288;DHT22;17103;48.316;11.558;2023-12-20T09:49:02;8.20;58.60
30288;DHT22;17103;48.316;11.558;2023-12-20T09:51:28;8.20;58.80
30288;DHT22;17103;48.316;11.558;2023-12-20T09:53:54;8.20;59.20
30288;DHT22;17103;48.316;11.558;2023-12-20T09:56:21;8.20;59.40
30288;DHT22;17103;48.316;11.558;2023-12-20T09:58:47;8.20;58.90
30288;DHT22;17103;48.316;11.558;2023-12-20T10:01:12;8.30;59.60
30288;DHT22;17103;48.316;11.558;2023-12-20T10:03:39;8.80;59.60
30288;DHT22;17103;48.316;11.558;2023-12-20T10:06:05;8.30;58.60
30288;DHT22;17103;48.316;11.558;2023-12-20T10:08:31;8.40;58.20
30288;DHT22;17103;48.316;11.558;2023-12-20T10:10:57;8.40;57.50
30288;DHT22;17103;48.316;11.558;2023-12-20T10:13:27;8.50;58.10
30288;DHT22;17103;48.316;11.558;2023-12-20T10:15:54;8.60;57.70
30288;DHT22;17103;48.316;11.558;2023-12-20T10:18:20;8.60;58.30
30288;DHT22;17103;48.316;11.558;2023-12-20T10:20:46;8.60;58.00
30288;DHT22;17103;48.316;11.558;2023-12-20T10:23:11;8.60;58.60
30288;DHT22;17103;48.316;11.558;2023-12-20T10:25:38;8.60;58.70
30288;DHT22;17103;48.316;11.558;2023-12-20T10:28:16;8.60;58.90
30288;DHT22;17103;48.316;11.558;2023-12-20T10:30:44;8.60;58.70
30288;DHT22;17103;48.316;11.558;2023-12-20T10:33:10;8.60;58.50
30288;DHT22;17103;48.316;11.558;2023-12-20T10:35:36;8.70;58.20
30288;DHT22;17103;48.316;11.558;2023-12-20T10:38:03;8.70;58.30
30288;DHT22;17103;48.316;11.558;2023-12-20T10:40:30;8.70;57.80
30288;DHT22;17103;48.316;11.558;2023-12-20T10:42:56;8.70;58.40
30288;DHT22;17103;48.316;11.558;2023-12-20T10:45:22;8.70;58.50
30288;DHT22;17103;48.316;11.558;2023-12-20T10:47:47;8.70;58.60
30288;DHT22;17103;48.316;11.558;2023-12-20T10:50:15;8.80;58.70
30288;DHT22;17103;48.316;11.558;2023-12-20T10:52:40;8.70;58.50
30288;DHT22;17103;48.316;11.558;2023-12-20T10:55:07;8.80;58.40
30288;DHT22;17103;48.316;11.558;2023-12-20T10:57:33;8.80;58.20
30288;DHT22;17103;48.316;11.558;2023-12-20T11:00:01;8.80;58.50
30288;DHT22;17103;48.316;11.558;2023-12-20T11:02:31;8.80;58.70
30288;DHT22;17103;48.316;11.558;2023-12-20T11:05:59;8.80;58.50
30288;DHT22;17103;48.316;11.558;2023-12-20T11:08:15;8.80;58.50
30288;DHT22;17103;48.316;11.558;2023-12-20T11:13:12;8.80;58.30
30288;DHT22;17103;48.316;11.558;2023-12-20T11:15:39;8.80;58.10
30288;DHT22;17103;48.316;11.558;2023-12-20T11:18:05;8.90;58.20
30288;DHT22;17103;48.316;11.558;2023-12-20T11:20:38;8.90;58.00
30288;DHT22;17103;48.316;11.558;2023-12-20T11:23:04;8.90;58.10
30288;DHT22;17103;48.316;11.558;2023-12-20T11:25:34;8.90;58.20
30288;DHT22;17103;48.316;11.558;2023-12-20T11:28:11;8.90;58.60
30288;DHT22;17103;48.316;11.558;2023-12-20T11:30:40;8.90;58.60
30288;DHT22;17103;48.316;11.558;2023-12-20T11:33:07;8.90;57.70
30288;DHT22;17103;48.316;11.558;2023-12-20T11:35:35;9.40;59.00
30288;DHT22;17103;48.316;11.558;2023-12-20T11:38:02;9.00;59.00
30288;DHT22;17103;48.316;11.558;2023-12-20T11:40:28;9.00;59.20
30288;DHT22;17103;48.316;11.558;2023-12-20T11:42:53;9.00;59.30
30288;DHT22;17103;48.316;11.558;2023-12-20T11:45:20;9.00;59.60
30288;DHT22;17103;48.316;11.558;2023-12-20T11:47:47;9.00;59.30
30288;DHT22;17103;48.316;11.558;2023-12-20T11:50:15;9.10;60.20
30288;DHT22;17103;48.316;11.558;2023-12-20T11:52:41;9.10;59.50
30288;DHT22;17103;48.316;11.558;2023-12-20T11:55:06;9.10;58.80
30288;DHT22;17103;48.316;11.558;2023-12-20T11:57:33;9.00;58.00
30288;DHT22;17103;48.316;11.558;2023-12-20T11:59:58;9.00;57.40
30288;DHT22;17103;48.316;11.558;2023-12-20T12:02:24;8.90;57.20
30288;DHT22;17103;48.316;11.558;2023-12-20T12:04:50;8.90;57.00
30288;DHT22;17103;48.316;11.558;2023-12-20T12:07:18;8.80;56.60
30288;DHT22;17103;48.316;11.558;2023-12-20T12:09:44;8.80;56.40
30288;DHT22;17103;48.316;11.558;2023-12-20T12:12:11;8.70;56.20
30288;DHT22;17103;48.316;11.558;2023-12-20T12:14:37;8.60;56.40
30288;DHT22;17103;48.316;11.558;2023-12-20T12:17:03;8.50;56.70
30288;DHT22;17103;48.316;11.558;2023-12-20T12:19:29;8.50;56.20
30288;DHT22;17103;48.316;11.558;2023-12-20T12:22:11;8.50;56.30
30288;DHT22;17103;48.316;11.558;2023-12-20T12:24:43;8.40;56.30
30288;DHT22;17103;48.316;11.558;2023-12-20T12:27:08;8.40;56.40
30288;DHT22;17103;48.316;11.558;2023-12-20T12:29:34;8.30;56.50
30288;DHT22;17103;48.316;11.558;2023-12-20T12:32:01;8.30;56.80
30288;DHT22;17103;48.316;11.558;2023-12-20T12:34:27;8.40;57.00
30288;DHT22;17103;48.316;11.558;2023-12-20T12:36:53;8.30;56.80
30288;DHT22;17103;48.316;11.558;2023-12-20T12:39:19;8.30;56.90
30288;DHT22;17103;48.316;11.558;2023-12-20T12:41:45;8.30;57.10
30288;DHT22;17103;48.316;11.558;2023-12-20T12:44:10;8.30;57.20
30288;DHT22;17103;48.316;11.558;2023-12-20T12:46:36;8.30;57.00
30288;DHT22;17103;48.316;11.558;2023-12-20T12:49:01;8.30;57.10
30288;DHT22;17103;48.316;11.558;2023-12-20T12:51:27;8.30;57.20
30288;DHT22;17103;48.316;11.558;2023-12-20T12:53:53;8.30;56.70
30288;DHT22;17103;48.316;11.558;2023-12-20T12:56:18;8.30;55.90
30288;DHT22;17103;48.316;11.558;2023-12-20T12:58:45;8.40;55.80
30288;DHT22;17103;48.316;11.558;2023-12-20T13:01:10;8.40;55.20
30288;DHT22;17103;48.316;11.558;2023-12-20T13:03:36;8.40;54.80
30288;DHT22;17103;48.316;11.558;2023-12-20T13:06:01;8.40;54.30
30288;DHT22;17103;48.316;11.558;2023-12-20T13:08:28;8.40;53.90
30288;DHT22;17103;48.316;11.558;2023-12-20T13:10:54;8.40;53.10
30288;DHT22;17103;48.316;11.558;2023-12-20T13:13:21;8.40;53.10
30288;DHT22;17103;48.316;11.558;2023-12-20T13:15:53;8.40;53.20
30288;DHT22;17103;48.316;11.558;2023-12-20T13:18:22;8.40;52.00
30288;DHT22;17103;48.316;11.558;2023-12-20T13:20:47;8.40;51.20
30288;DHT22;17103;48.316;11.558;2023-12-20T13:23:14;8.30;51.10
30288;DHT22;17103;48.316;11.558;2023-12-20T13:25:40;8.20;51.40
30288;DHT22;17103;48.316;11.558;2023-12-20T13:28:06;8.20;51.50
30288;DHT22;17103;48.316;11.558;2023-12-20T13:30:32;8.20;51.90
30288;DHT22;17103;48.316;11.558;2023-12-20T13:32:58;8.20;51.80
30288;DHT22;17103;48.316;11.558;2023-12-20T13:35:23;8.10;52.00
30288;DHT22;17103;48.316;11.558;2023-12-20T13:37:49;8.10;52.00
30288;DHT22;17103;48.316;11.558;2023-12-20T13:40:14;8.10;52.20
30288;DHT22;17103;48.316;11.558;2023-12-20T13:42:40;8.10;52.40
30288;DHT22;17103;48.316;11.558;2023-12-20T13:45:06;8.10;52.60
30288;DHT22;17103;48.316;11.558;2023-12-20T13:47:32;8.10;52.50
30288;DHT22;17103;48.316;11.558;2023-12-20T13:49:57;8.20;52.60
30288;DHT22;17103;48.316;11.558;2023-12-20T13:52:23;8.20;52.40
30288;DHT22;17103;48.316;11.558;2023-12-20T13:54:49;8.20;52.40
30288;DHT22;17103;48.316;11.558;2023-12-20T13:57:14;8.30;52.40
30288;DHT22;17103;48.316;11.558;2023-12-20T13:59:40;8.30;52.20
30288;DHT22;17103;48.316;11.558;2023-12-20T14:02:06;8.30;52.00
30288;DHT22;17103;48.316;11.558;2023-12-20T14:04:31;8.30;51.40
30288;DHT22;17103;48.316;11.558;2023-12-20T14:06:57;8.30;51.00
30288;DHT22;17103;48.316;11.558;2023-12-20T14:09:23;8.30;51.10
30288;DHT22;17103;48.316;11.558;2023-12-20T14:11:48;8.40;50.90
30288;DHT22;17103;48.316;11.558;2023-12-20T14:14:14;8.40;50.60
30288;DHT22;17103;48.316;11.558;2023-12-20T14:16:39;8.40;50.40
30288;DHT22;17103;48.316;11.558;2023-12-20T14:19:05;8.40;50.00
30288;DHT22;17103;48.316;11.558;2023-12-20T14:21:33;8.40;49.70
30288;DHT22;17103;48.316;11.558;2023-12-20T14:23:59;8.30;48.90
30288;DHT22;17103;48.316;11.558;2023-12-20T14:26:25;8.30;48.60
30288;DHT22;17103;48.316;11.558;2023-12-20T14:28:52;8.20;48.50
30288;DHT22;17103;48.316;11.558;2023-12-20T14:31:19;8.10;48.70
30288;DHT22;17103;48.316;11.558;2023-12-20T14:33:45;8.10;48.80
30288;DHT22;17103;48.316;11.558;2023-12-20T14:36:11;8.10;49.30
30288;DHT22;17103;48.316;11.558;2023-12-20T14:38:37;8.00;48.90
30288;DHT22;17103;48.316;11.558;2023-12-20T14:41:03;8.00;48.90
30288;DHT22;17103;48.316;11.558;2023-12-20T14:43:30;8.00;48.20
30288;DHT22;17103;48.316;11.558;2023-12-20T14:45:56;8.00;48.40
30288;DHT22;17103;48.316;11.558;2023-12-20T14:48:21;8.00;48.20
30288;DHT22;17103;48.316;11.558;2023-12-20T14:50:47;7.90;47.70
30288;DHT22;17103;48.316;11.558;2023-12-20T14:53:14;7.90;47.90
30288;DHT22;17103;48.316;11.558;2023-12-20T14:55:44;7.90;48.00
30288;DHT22;17103;48.316;11.558;2023-12-20T14:58:10;9.00;48.70
30288;DHT22;17103;48.316;11.558;2023-12-20T15:00:36;7.90;48.00
30288;DHT22;17103;48.316;11.558;2023-12-20T15:03:01;7.90;47.80
30288;DHT22;17103;48.316;11.558;2023-12-20T15:05:29;7.90;47.60
30288;DHT22;17103;48.316;11.558;2023-12-20T15:07:55;7.90;47.40
30288;DHT22;17103;48.316;11.558;2023-12-20T15:10:24;7.90;47.20
30288;DHT22;17103;48.316;11.558;2023-12-20T15:12:50;7.80;47.00
30288;DHT22;17103;48.316;11.558;2023-12-20T15:15:16;7.90;47.40
30288;DHT22;17103;48.316;11.558;2023-12-20T15:17:45;7.80;47.00
30288;DHT22;17103;48.316;11.558;2023-12-20T15:20:26;7.80;47.00
30288;DHT22;17103;48.316;11.558;2023-12-20T15:22:52;7.80;47.10
30288;DHT22;17103;48.316;11.558;2023-12-20T15:25:18;7.70;47.60
30288;DHT22;17103;48.316;11.558;2023-12-20T15:27:50;7.80;47.20
30288;DHT22;17103;48.316;11.558;2023-12-20T15:30:19;7.80;47.40
30288;DHT22;17103;48.316;11.558;2023-12-20T15:32:44;7.80;47.50
30288;DHT22;17103;48.316;11.558;2023-12-20T15:35:10;7.80;47.30